Briefing drone pour Saint-laurent-nouan

Rechercher une autre localisation

Conditions de vol :


Nous sommes le : Samedi 06 mars 2021
Il est 15:02 UTC (16:02 LT)

Lever de soleil : 05:57 UTC (06:57 LT)
Coucher de soleil : 18:12 UTC (19:12 LT)

Météo

L'essentiel des conditions de vol

VIGILANCE MÉTÉO FRANCE - Loir-et-Cher (41)
Pas de vigilances particulieres
METAR de LFOJ
LFOJ 061430Z AUTO 06015KT CAVOK 09/M04 Q1026

Date d'émission: 06/03/2021
Heure d'émission: 14:30 UTC
Vent: 060° pour 15 KT (28 km/h)
Visibilité horizontale: > 10 km
Plafond : Plafond et visibilité OK (CAVOK)
Température: 9 °C
Point de rosée: -4 °C
Humidité: 40%
Pression (QNH): 1026 hPa
TAF de LFOJ
LFOJ 060915Z 0609/0709 CNL

Conditions prévues :

Heure d'émission : Bulletin éffectué le 06 à 09:00 UTC
Prévision : Valide du 06 a 09:00 UTC au 07 a 09:00 UTC
Nuages : à 0ft (0 m)
WEBCAM POUR SAINT-LAURENT-NOUAN

Réglementation

Voler en sécurité

CARTES AERONAUTIQUE 1/500.000
CARTES VAC (LFOJ)
SUP AIP




Chargement des AIP...
NOTAM (SAINT-LAURENT-NOUAN + Terrain à proximité / FIR )




Chargement des NOTAMS...
CONTACT PREFECTURE 41
Loir-et-Cher (41) : pref-bpas@loir-et-cher.gouv.fr


Avertissement : Les données mises à disposition sont indicatives. Oxygène Drone ne pourra être tenu responsable de dégâts causés aux biens et aux personnes.